Terminal Aerodrome Forecast
Issued by NWS Pueblo, CO

Home | Current Version | Previous Version | Text Only | Print | Product List | Glossary On
Versions: 1 2 3 4 5 6 7 8 9 10 11 12 13 14 15 16 17 18 19 20 21
000
FTUS45 KPUB 270530
TAFCOS
TAF
KCOS 270530Z 2706/2806 14007KT P6SM SCT025 BKN035
      TEMPO 2706/2708 BKN025
     FM271000 VRB04KT P6SM SCT030 SCT120
     FM271600 16008KT P6SM SCT120
     FM271900 17013G23KT P6SM SCT120 SCT200
     FM272100 17012G23KT P6SM BKN110
     FM280200 13010KT P6SM SCT050 BKN100
     FM280400 12009KT P6SM VCSH BKN050=

USA.gov is the U.S. government's official web portal to all federal, state and local government web resources and services.